Time;durP1;ratioP1;P1;durP2;ratioP2;P2;SDS_P1;SDS_P2;PMS_P1;PMS_P2;Temp;Humidity;BMP_temperature;BMP_pressure;BME280_temperature;BME280_humidity;BME280_pressure;Samples;Min_cycle;Max_cycle;Signal;HPM_P1;HPM_P2
2022/06/23 00:00:36;;;;;;;5.18;2.47;;;;;;;16.89;100.00;101393.97;10359983;28;20127;-67
2022/06/23 00:05:37;;;;;;;5.38;2.67;;;;;;;16.79;100.00;101394.44;10363993;28;20079;-65
2022/06/23 00:10:46;;;;;;;6.15;2.90;;;;;;;16.74;100.00;101395.44;10354047;28;20044;-65
2022/06/23 00:15:44;;;;;;;5.68;3.03;;;;;;;16.71;100.00;101404.41;10352344;28;20048;-64
2022/06/23 00:20:49;;;;;;;4.95;2.60;;;;;;;16.66;100.00;101395.53;10360027;28;20044;-64
2022/06/23 00:25:54;;;;;;;7.63;3.00;;;;;;;16.59;100.00;101396.91;10339483;28;20094;-65
2022/06/23 00:31:01;;;;;;;5.30;2.60;;;;;;;16.54;100.00;101405.38;10337010;28;20123;-63
2022/06/23 00:35:58;;;;;;;5.63;2.80;;;;;;;16.48;100.00;101395.72;10359740;28;20047;-65
2022/06/23 00:40:56;;;;;;;5.10;3.08;;;;;;;16.44;100.00;101411.34;10358094;28;20568;-64
2022/06/23 00:46:13;;;;;;;6.85;3.15;;;;;;;16.39;100.00;101403.28;10349964;28;20098;-65
2022/06/23 00:51:19;;;;;;;6.05;3.10;;;;;;;16.36;100.00;101406.72;10356984;28;20072;-65
2022/06/23 00:56:33;;;;;;;7.05;3.75;;;;;;;16.28;100.00;101402.09;10347245;27;20121;-63
2022/06/23 01:01:35;;;;;;;6.25;3.30;;;;;;;16.22;100.00;101406.22;10358848;27;20040;-64
2022/06/23 01:06:41;;;;;;;6.65;3.42;;;;;;;16.15;100.00;101407.59;10365529;28;20071;-63
2022/06/23 01:11:40;;;;;;;7.70;4.10;;;;;;;16.12;100.00;101415.72;10355862;28;20564;-64
2022/06/23 01:16:48;;;;;;;6.10;3.58;;;;;;;16.07;100.00;101415.94;10366445;28;20493;-64
2022/06/23 01:21:52;;;;;;;8.32;3.95;;;;;;;16.03;100.00;101413.03;10351302;28;20120;-64
2022/06/23 01:27:04;;;;;;;7.55;3.60;;;;;;;15.97;100.00;101414.41;10363803;28;20051;-65
2022/06/23 01:32:20;;;;;;;6.20;4.03;;;;;;;15.91;100.00;101407.47;10350199;28;20163;-64
2022/06/23 01:37:28;;;;;;;6.05;3.75;;;;;;;15.90;100.00;101414.16;10353411;28;20070;-64
2022/06/23 01:42:39;;;;;;;5.72;4.00;;;;;;;15.86;100.00;101415.94;10362328;28;20043;-64
2022/06/23 01:47:46;;;;;;;5.82;3.90;;;;;;;15.80;100.00;101420.03;10347126;28;20056;-63
2022/06/23 01:52:47;;;;;;;8.20;4.85;;;;;;;15.73;100.00;101417.81;10351914;27;20135;-64
2022/06/23 01:57:53;;;;;;;7.30;3.83;;;;;;;15.66;100.00;101410.06;10358454;28;20077;-63
2022/06/23 02:02:56;;;;;;;7.28;4.43;;;;;;;15.62;100.00;101419.31;10353899;28;20048;-65
2022/06/23 02:07:55;;;;;;;7.13;4.20;;;;;;;15.58;100.00;101413.69;10363347;28;20044;-65
2022/06/23 02:12:55;;;;;;;7.88;5.20;;;;;;;15.53;100.00;101422.16;10355407;28;20142;-65
2022/06/23 02:18:12;;;;;;;6.68;4.35;;;;;;;15.48;100.00;101427.84;10350987;28;20168;-66
2022/06/23 02:23:17;;;;;;;7.03;5.28;;;;;;;15.44;100.00;101429.69;10354764;28;20068;-66
2022/06/23 02:28:34;;;;;;;8.27;4.47;;;;;;;15.39;100.00;101438.94;10368854;28;20071;-64
2022/06/23 02:33:37;;;;;;;9.52;4.93;;;;;;;15.36;100.00;101450.59;10352695;28;20076;-64
2022/06/23 02:38:48;;;;;;;7.93;4.50;;;;;;;15.34;100.00;101453.72;10350744;28;20083;-64
2022/06/23 02:43:48;;;;;;;7.93;4.82;;;;;;;15.31;100.00;101456.31;10363518;28;20093;-66
2022/06/23 02:49:00;;;;;;;9.45;6.07;;;;;;;15.25;100.00;101449.41;10356068;28;20666;-65
2022/06/23 02:54:21;;;;;;;7.13;4.78;;;;;;;15.19;100.00;101450.72;10355313;27;20072;-65
2022/06/23 02:59:32;;;;;;;7.47;4.75;;;;;;;15.18;100.00;101455.41;10356272;28;20079;-65
2022/06/23 03:04:35;;;;;;;8.73;5.00;;;;;;;15.17;100.00;101453.78;10364526;28;20047;-66
2022/06/23 03:09:37;;;;;;;9.00;4.40;;;;;;;15.13;100.00;101442.63;10366468;28;20068;-64
2022/06/23 03:14:33;;;;;;;;;;;;;;;15.12;100.00;101456.72;10362914;28;20052;-64
2022/06/23 03:19:42;;;;;;;6.65;4.38;;;;;;;15.10;100.00;101448.00;10367495;28;19999;-64
2022/06/23 03:24:51;;;;;;;6.38;4.68;;;;;;;15.10;100.00;101453.50;10341766;28;20083;-65
2022/06/23 03:30:00;;;;;;;6.25;4.50;;;;;;;15.06;100.00;101441.50;10334342;28;20106;-63
2022/06/23 03:35:10;;;;;;;8.48;4.78;;;;;;;15.06;100.00;101447.84;10353039;28;20427;-63
2022/06/23 03:46:24;;;;;;;9.50;5.20;;;;;;;15.10;100.00;101453.50;10349618;28;20090;-65
2022/06/23 03:51:28;;;;;;;7.80;5.80;;;;;;;15.09;100.00;101458.19;10355568;27;20075;-67
2022/06/23 03:56:35;;;;;;;8.73;5.30;;;;;;;15.11;100.00;101444.13;10349602;28;20159;-67
2022/06/23 04:01:40;;;;;;;8.45;5.97;;;;;;;15.12;100.00;101451.22;10352576;28;20134;-67
2022/06/23 04:06:42;;;;;;;8.13;4.82;;;;;;;15.10;100.00;101442.47;10348599;28;20044;-67
2022/06/23 04:12:02;;;;;;;8.00;4.95;;;;;;;15.13;100.00;101441.81;10343156;28;20515;-67
2022/06/23 04:17:26;;;;;;;10.45;5.55;;;;;;;15.18;100.00;101444.41;10341346;28;20735;-66
2022/06/23 04:22:37;;;;;;;8.30;5.97;;;;;;;15.26;100.00;101459.25;10334938;28;20043;-66
2022/06/23 04:27:44;;;;;;;7.90;4.97;;;;;;;15.25;100.00;101461.22;10327097;28;20094;-64
2022/06/23 04:32:41;;;;;;;9.32;5.40;;;;;;;15.25;100.00;101466.72;10319800;28;20614;-64
2022/06/23 04:37:56;;;;;;;10.07;6.22;;;;;;;15.33;100.00;101468.63;10334671;28;20075;-67
2022/06/23 04:42:58;;;;;;;9.27;5.85;;;;;;;15.38;100.00;101469.56;10324515;28;20084;-68
2022/06/23 04:47:58;;;;;;;;;;;;;;;15.45;100.00;101480.88;10327681;28;20466;-68
2022/06/23 04:52:56;;;;;;;9.48;5.20;;;;;;;15.48;100.00;101485.72;10348448;28;20014;-68
2022/06/23 04:58:10;;;;;;;8.32;4.95;;;;;;;15.53;100.00;101488.31;10335877;28;20087;-68
2022/06/23 05:03:24;;;;;;;9.43;4.43;;;;;;;15.60;100.00;101483.06;10332309;28;20056;-68
2022/06/23 05:08:26;;;;;;;10.07;3.92;;;;;;;15.64;100.00;101489.53;10339576;28;20484;-68
2022/06/23 05:13:28;;;;;;;7.10;3.37;;;;;;;15.70;100.00;101499.25;10331009;28;20044;-67
2022/06/23 05:18:28;;;;;;;8.70;3.53;;;;;;;15.74;100.00;101502.16;10357962;28;20101;-67
2022/06/23 05:23:39;;;;;;;8.38;3.75;;;;;;;15.80;100.00;101497.25;10365840;28;20131;-67
2022/06/23 05:28:37;;;;;;;8.05;3.53;;;;;;;15.87;100.00;101500.28;10359099;28;20036;-68
2022/06/23 05:33:37;;;;;;;10.75;3.30;;;;;;;15.98;100.00;101498.75;10333233;28;20044;-68
2022/06/23 05:38:43;;;;;;;9.43;3.85;;;;;;;16.04;100.00;101502.94;10338161;28;20086;-68
2022/06/23 05:43:41;;;;;;;7.30;2.92;;;;;;;16.13;100.00;101500.91;10341701;28;20060;-67
2022/06/23 05:48:42;;;;;;;5.47;2.78;;;;;;;16.22;100.00;101494.50;10341268;28;20048;-68
2022/06/23 05:53:49;;;;;;;5.28;2.72;;;;;;;16.27;100.00;101494.28;10341279;27;20051;-68
2022/06/23 05:59:02;;;;;;;8.93;2.67;;;;;;;16.34;100.00;101489.88;10342889;28;20511;-68
2022/06/23 06:04:05;;;;;;;8.32;3.17;;;;;;;16.42;100.00;101491.72;10356141;28;20579;-69
2022/06/23 06:14:26;;;;;;;8.02;3.20;;;;;;;16.66;100.00;101489.38;10337518;27;20134;-68
2022/06/23 06:19:26;;;;;;;5.22;2.85;;;;;;;16.75;100.00;101498.41;10332127;28;20056;-71
2022/06/23 06:24:36;;;;;;;7.68;2.92;;;;;;;16.85;100.00;101497.19;10329758;28;20078;-69
2022/06/23 06:29:35;;;;;;;7.63;3.30;;;;;;;16.93;100.00;101488.81;10323168;28;20098;-69
2022/06/23 06:34:34;;;;;;;5.68;3.05;;;;;;;17.07;100.00;101485.72;10340911;28;20607;-68
2022/06/23 06:39:42;;;;;;;5.07;2.55;;;;;;;17.16;100.00;101483.66;10358921;28;20088;-68
2022/06/23 06:44:46;;;;;;;5.85;2.60;;;;;;;17.29;100.00;101478.97;10339058;28;20048;-69
2022/06/23 06:49:43;;;;;;;6.05;2.55;;;;;;;17.42;100.00;101483.31;10346654;28;20516;-69
2022/06/23 06:54:46;;;;;;;6.53;3.33;;;;;;;17.60;100.00;101472.03;10344582;28;20083;-68
2022/06/23 06:59:42;;;;;;;;;;;;;;;17.73;100.00;101473.63;10349253;28;20135;-69
2022/06/23 07:04:46;;;;;;;7.00;3.38;;;;;;;17.85;100.00;101479.16;10355969;27;20187;-68
2022/06/23 07:09:51;;;;;;;6.10;2.85;;;;;;;18.03;100.00;101467.81;10326977;28;20123;-68
2022/06/23 07:15:20;;;;;;;6.20;3.10;;;;;;;18.15;100.00;101467.78;10323943;28;20163;-68
2022/06/23 07:20:28;;;;;;;7.35;2.67;;;;;;;18.28;100.00;101469.34;10332871;28;20059;-67
2022/06/23 07:25:41;;;;;;;6.68;3.00;;;;;;;18.44;100.00;101474.94;10339454;28;20040;-68
2022/06/23 07:30:49;;;;;;;7.05;2.80;;;;;;;18.60;100.00;101469.44;10332291;28;20519;-68
2022/06/23 07:36:18;;;;;;;5.80;2.65;;;;;;;18.79;100.00;101470.75;10333178;28;20407;-68
2022/06/23 07:41:35;;;;;;;6.57;2.65;;;;;;;18.93;100.00;101471.09;10357733;28;20562;-68
2022/06/23 07:46:34;;;;;;;8.15;2.50;;;;;;;19.08;100.00;101456.47;10342793;28;20076;-69
2022/06/23 07:51:30;;;;;;;6.38;2.53;;;;;;;19.21;100.00;101459.13;10341417;27;20047;-68
2022/06/23 07:56:31;;;;;;;5.70;2.30;;;;;;;19.41;100.00;101473.88;10338412;28;20089;-69
2022/06/23 08:01:32;;;;;;;7.57;2.40;;;;;;;19.55;100.00;101475.00;10343948;28;20048;-69
2022/06/23 08:06:28;;;;;;;6.10;3.00;;;;;;;19.69;100.00;101479.31;10344361;28;20044;-69
2022/06/23 08:17:08;;;;;;;4.78;2.13;;;;;;;19.99;100.00;101481.56;10327147;28;20044;-70
2022/06/23 08:22:27;;;;;;;7.80;2.53;;;;;;;20.16;100.00;101470.81;10355674;28;20575;-70
2022/06/23 08:27:28;;;;;;;6.57;3.00;;;;;;;20.32;100.00;101462.41;10336889;28;20051;-69
2022/06/23 08:32:27;;;;;;;6.70;2.95;;;;;;;20.50;100.00;101459.19;10324604;28;20056;-69
2022/06/23 08:37:24;;;;;;;10.35;3.42;;;;;;;20.68;100.00;101457.56;10342104;28;20523;-69
2022/06/23 08:42:34;;;;;;;7.60;2.28;;;;;;;20.78;100.00;101451.38;10336198;28;20041;-69
2022/06/23 08:47:58;;;;;;;5.40;2.80;;;;;;;21.03;100.00;101445.47;10335953;28;20076;-68
2022/06/23 08:53:25;;;;;;;5.93;2.47;;;;;;;21.22;100.00;101442.59;10326882;27;20139;-68
2022/06/23 08:58:46;;;;;;;6.78;2.95;;;;;;;21.40;100.00;101442.09;10349127;28;20080;-68
2022/06/23 09:04:11;;;;;;;9.30;2.83;;;;;;;21.60;100.00;101440.78;10360067;28;20047;-68
2022/06/23 09:09:13;;;;;;;5.00;1.70;;;;;;;21.70;100.00;101430.19;10340207;28;20071;-68
2022/06/23 09:14:18;;;;;;;;;;;;;;;21.91;100.00;101427.72;10330558;28;20292;-68
2022/06/23 09:19:43;;;;;;;5.18;1.80;;;;;;;22.01;100.00;101431.78;10335582;28;19924;-69
2022/06/23 09:25:02;;;;;;;5.00;2.17;;;;;;;22.25;100.00;101427.72;10324677;28;20083;-68
2022/06/23 09:30:11;;;;;;;5.25;2.22;;;;;;;22.41;100.00;101430.28;10329812;28;20039;-68
2022/06/23 09:35:23;;;;;;;5.22;2.08;;;;;;;22.57;100.00;101414.13;10335482;28;20086;-68
2022/06/23 09:40:33;;;;;;;4.60;2.05;;;;;;;22.86;100.00;101415.19;10330723;28;20091;-68
2022/06/23 09:45:38;;;;;;;6.03;2.25;;;;;;;22.99;100.00;101409.34;10324807;28;20167;-68
2022/06/23 09:50:46;;;;;;;6.43;2.10;;;;;;;23.18;100.00;101397.94;10329232;28;20044;-68
2022/06/23 09:56:07;;;;;;;6.43;2.30;;;;;;;23.40;100.00;101404.47;10318678;28;20129;-68
2022/06/23 10:01:12;;;;;;;5.82;2.13;;;;;;;23.68;100.00;101397.44;10323129;28;20044;-68
2022/06/23 10:06:24;;;;;;;6.53;2.05;;;;;;;23.98;99.47;101396.41;10324880;28;20523;-68
2022/06/23 10:11:44;;;;;;;;;;;;;;;24.29;89.56;101408.84;10347878;28;20091;-66
2022/06/23 10:17:23;;;;;;;4.78;2.25;;;;;;;25.03;77.63;101384.97;10332450;28;19924;-68
2022/06/23 10:22:26;;;;;;;5.30;2.03;;;;;;;26.74;88.83;101387.47;10335107;28;20052;-68
2022/06/23 10:27:53;;;;;;;6.65;2.63;;;;;;;27.83;69.55;101367.09;10327593;28;20123;-68
2022/06/23 10:33:23;;;;;;;3.08;1.50;;;;;;;29.29;71.81;101367.97;10324470;28;20555;-67
2022/06/23 10:38:35;;;;;;;4.72;1.48;;;;;;;30.65;58.64;101376.31;10333594;28;20192;-68
2022/06/23 10:44:10;;;;;;;4.57;1.60;;;;;;;31.20;50.99;101366.00;10327276;28;20109;-68
2022/06/23 10:49:31;;;;;;;5.57;1.40;;;;;;;32.12;47.67;101360.13;10324596;28;20532;-68
2022/06/23 10:54:52;;;;;;;3.08;1.40;;;;;;;32.73;47.80;101347.66;10328158;28;20068;-67
2022/06/23 10:59:59;;;;;;;5.43;1.48;;;;;;;33.28;47.56;101348.13;10331237;28;20128;-68
2022/06/23 11:05:17;;;;;;;3.55;1.42;;;;;;;33.91;38.55;101334.03;10336262;28;20143;-68
2022/06/23 11:10:19;;;;;;;4.40;1.70;;;;;;;34.08;37.79;101328.91;10337399;28;20437;-67
2022/06/23 11:15:23;;;;;;;7.00;1.70;;;;;;;34.21;35.34;101337.31;10324931;28;20097;-67
2022/06/23 11:20:44;;;;;;;5.30;1.70;;;;;;;34.49;35.29;101330.47;10343283;28;20547;-67
2022/06/23 11:25:53;;;;;;;4.17;1.73;;;;;;;34.82;34.74;101329.88;10349558;28;20120;-67
2022/06/23 11:31:08;;;;;;;5.05;1.80;;;;;;;34.74;31.31;101320.91;10336149;28;20769;-67
2022/06/23 11:36:32;;;;;;;3.05;1.50;;;;;;;34.63;37.70;101322.59;10344246;28;20416;-68
2022/06/23 11:42:02;;;;;;;5.20;1.70;;;;;;;34.64;39.44;101318.50;10340982;28;20078;-68
2022/06/23 11:47:17;;;;;;;5.75;1.60;;;;;;;34.51;29.54;101310.91;10346253;28;20075;-68
2022/06/23 11:52:27;;;;;;;3.22;1.20;;;;;;;34.78;34.59;101312.22;10350554;28;20036;-67
2022/06/23 11:57:42;;;;;;;3.80;1.13;;;;;;;34.20;27.13;101319.50;10357804;28;20044;-67
2022/06/23 12:02:59;;;;;;;3.75;1.20;;;;;;;33.43;27.63;101300.19;10349270;28;20044;-67
2022/06/23 12:08:31;;;;;;;5.32;1.38;;;;;;;33.62;30.23;101303.94;10329574;28;20044;-67
2022/06/23 12:13:28;;;;;;;3.30;1.20;;;;;;;34.35;33.06;101302.69;10329629;28;20048;-67
2022/06/23 12:18:30;;;;;;;2.70;1.23;;;;;;;34.03;27.43;101292.63;10328820;28;20504;-67
2022/06/23 12:23:36;;;;;;;3.55;1.45;;;;;;;34.04;28.53;101292.16;10333372;28;20098;-67
2022/06/23 12:28:38;;;;;;;3.58;1.27;;;;;;;34.09;31.01;101271.72;10323770;28;20044;-67
2022/06/23 12:33:59;;;;;;;3.95;1.40;;;;;;;33.74;28.16;101266.19;10330033;28;20105;-67
2022/06/23 12:39:01;;;;;;;5.65;1.48;;;;;;;33.26;29.03;101264.84;10325103;28;20124;-67
2022/06/23 12:44:02;;;;;;;;;;;;;;;32.54;33.28;101261.78;10340954;28;20036;-67
2022/06/23 12:49:15;;;;;;;5.70;1.50;;;;;;;31.99;36.05;101250.66;10337732;28;19968;-67
2022/06/23 12:54:45;;;;;;;5.78;1.42;;;;;;;31.48;37.35;101255.50;10330925;28;20589;-67
2022/06/23 12:59:53;;;;;;;3.58;1.42;;;;;;;30.91;42.37;101253.03;10326666;28;20066;-67
2022/06/23 13:04:58;;;;;;;5.88;1.27;;;;;;;30.58;47.53;101252.31;10341976;28;20143;-67
2022/06/23 13:10:21;;;;;;;3.83;1.92;;;;;;;30.46;35.81;101238.97;10346636;28;20048;-67
2022/06/23 13:15:39;;;;;;;4.53;1.92;;;;;;;31.03;46.90;101232.56;10366641;27;20039;-67
2022/06/23 13:21:14;;;;;;;4.50;1.50;;;;;;;31.02;42.30;101235.81;10354712;28;20039;-67
2022/06/23 13:26:20;;;;;;;3.60;1.80;;;;;;;30.57;36.19;101231.00;10325668;28;20449;-68
2022/06/23 13:31:24;;;;;;;6.45;1.77;;;;;;;30.23;38.93;101215.31;10322440;28;20045;-67
2022/06/23 13:36:29;;;;;;;4.18;1.65;;;;;;;30.03;43.83;101211.81;10326299;28;20511;-66
2022/06/23 13:41:58;;;;;;;3.53;2.05;;;;;;;29.82;42.07;101213.13;10329573;28;20541;-66
2022/06/23 13:47:21;;;;;;;4.85;2.08;;;;;;;29.52;39.02;101201.72;10308139;28;20752;-66
2022/06/23 13:52:25;;;;;;;3.67;1.65;;;;;;;29.34;46.18;101193.69;10320656;28;20551;-66
2022/06/23 13:57:54;;;;;;;6.80;1.73;;;;;;;29.32;50.59;101181.25;10325539;28;20040;-66
2022/06/23 14:02:56;;;;;;;5.65;1.95;;;;;;;29.40;53.00;101182.69;10338364;28;20576;-66
2022/06/23 14:08:08;;;;;;;4.43;1.48;;;;;;;29.33;46.85;101182.84;10333085;28;20036;-66
2022/06/23 14:13:19;;;;;;;5.10;1.85;;;;;;;29.28;48.10;101175.69;10337938;28;20130;-66
2022/06/23 14:18:31;;;;;;;3.30;1.40;;;;;;;29.32;43.16;101167.19;10345646;28;20093;-66
2022/06/23 14:23:42;;;;;;;3.55;1.58;;;;;;;29.43;45.27;101164.91;10340436;28;20051;-66
2022/06/23 14:28:56;;;;;;;2.95;1.33;;;;;;;30.20;44.13;101154.97;10337339;28;20044;-66
2022/06/23 14:34:04;;;;;;;4.60;1.77;;;;;;;30.65;37.64;101147.72;10343097;28;20795;-66
2022/06/23 14:39:18;;;;;;;5.78;1.52;;;;;;;30.61;40.06;101156.31;10341686;28;20094;-66
2022/06/23 14:44:26;;;;;;;3.25;1.45;;;;;;;30.35;41.59;101149.75;10332425;28;20125;-68
2022/06/23 14:50:02;;;;;;;3.60;1.40;;;;;;;30.22;41.75;101151.72;10333618;28;20087;-69
2022/06/23 14:55:23;;;;;;;3.83;1.60;;;;;;;30.85;46.94;101141.16;10329290;28;20139;-69
2022/06/23 15:00:37;;;;;;;4.10;1.77;;;;;;;30.69;47.71;101130.69;10337810;28;20502;-68
2022/06/23 15:05:51;;;;;;;4.80;1.85;;;;;;;30.73;48.74;101129.34;10328061;28;20411;-68
2022/06/23 15:10:56;;;;;;;4.30;1.75;;;;;;;30.74;38.22;101119.63;10344042;28;20444;-69
2022/06/23 15:16:19;;;;;;;3.78;1.60;;;;;;;31.01;41.90;101115.66;10335072;28;20045;-69
2022/06/23 15:26:59;;;;;;;3.40;1.50;;;;;;;30.75;47.42;101107.13;10338530;28;20039;-69
2022/06/23 15:32:32;;;;;;;4.43;2.10;;;;;;;30.67;45.11;101097.28;10334996;28;20044;-69
2022/06/23 15:37:53;;;;;;;3.50;1.73;;;;;;;30.84;44.54;101106.47;10322659;28;20047;-69
2022/06/23 15:43:16;;;;;;;4.13;1.77;;;;;;;31.11;43.92;101097.56;10326300;28;20068;-69
2022/06/23 15:48:26;;;;;;;4.13;1.60;;;;;;;31.15;38.01;101092.63;10330876;28;20028;-70
2022/06/23 15:53:37;;;;;;;4.50;1.40;;;;;;;31.30;42.52;101080.84;10332029;28;20101;-70
2022/06/23 15:58:44;;;;;;;3.83;1.40;;;;;;;31.62;44.07;101086.25;10344280;28;20044;-69
2022/06/23 16:03:46;;;;;;;6.80;1.88;;;;;;;32.66;39.95;101087.47;10323946;28;20502;-69
2022/06/23 16:08:56;;;;;;;4.22;1.88;;;;;;;33.68;37.46;101075.28;10331544;28;20090;-69
2022/06/23 16:14:29;;;;;;;3.35;1.63;;;;;;;34.54;31.47;101062.97;10314902;28;20151;-68
2022/06/23 16:19:52;;;;;;;5.45;1.98;;;;;;;34.76;32.41;101065.59;10313961;28;20044;-65
2022/06/23 16:25:04;;;;;;;4.72;1.52;;;;;;;35.33;35.82;101050.69;10347642;28;20036;-66
2022/06/23 16:30:10;;;;;;;5.75;2.00;;;;;;;35.98;29.46;101055.94;10351347;28;20448;-67
2022/06/23 16:35:28;;;;;;;4.28;1.30;;;;;;;35.87;37.13;101052.84;10351066;28;20106;-67
2022/06/23 16:40:24;;;;;;;4.32;2.05;;;;;;;35.38;27.51;101055.69;10327154;28;20468;-66
2022/06/23 16:45:50;;;;;;;3.47;1.40;;;;;;;34.62;31.47;101054.91;10325336;28;20079;-65
2022/06/23 16:51:03;;;;;;;5.47;2.65;;;;;;;34.28;34.69;101056.06;10308092;28;20134;-66
2022/06/23 16:56:10;;;;;;;3.67;1.73;;;;;;;34.85;31.35;101061.94;10323082;28;20040;-65
2022/06/23 17:01:19;;;;;;;3.20;1.60;;;;;;;35.74;34.74;101044.56;10321171;28;20139;-66
2022/06/23 17:06:26;;;;;;;5.78;3.05;;;;;;;36.32;35.46;101045.19;10329358;28;20258;-66
2022/06/23 17:11:46;;;;;;;3.70;2.05;;;;;;;36.00;30.02;101039.16;10319079;28;20132;-66
2022/06/23 17:16:51;;;;;;;4.82;1.83;;;;;;;35.36;30.37;101032.66;10313031;28;20075;-65
2022/06/23 17:22:24;;;;;;;6.15;1.55;;;;;;;34.68;40.78;101040.88;10344236;28;20047;-65
2022/06/23 17:27:52;;;;;;;3.13;1.08;;;;;;;33.83;46.44;101046.31;10343860;28;20048;-65
2022/06/23 17:32:59;;;;;;;3.53;1.05;;;;;;;32.83;50.22;101046.31;10346488;28;20109;-65
2022/06/23 17:38:01;;;;;;;2.35;0.90;;;;;;;33.85;49.48;101040.94;10352263;27;20044;-65
2022/06/23 17:48:38;;;;;;;3.10;0.90;;;;;;;35.18;44.74;101035.59;10345870;28;20563;-65
2022/06/23 17:53:35;;;;;;;3.05;1.30;;;;;;;35.33;45.19;101033.63;10349045;28;20041;-66
2022/06/23 17:58:37;;;;;;;3.53;1.08;;;;;;;34.93;44.55;101034.78;10343476;28;20578;-66
2022/06/23 18:03:37;;;;;;;2.13;0.93;;;;;;;34.00;48.26;101033.41;10322138;28;20148;-64
2022/06/23 18:08:46;;;;;;;3.72;0.80;;;;;;;32.38;53.91;101047.63;10316258;28;20480;-63
2022/06/23 18:14:09;;;;;;;3.15;1.00;;;;;;;31.45;66.16;101042.44;10324071;28;20124;-63
2022/06/23 18:19:13;;;;;;;5.18;1.30;;;;;;;30.79;69.43;101054.16;10321614;28;20478;-65
2022/06/23 18:24:28;;;;;;;3.15;1.15;;;;;;;30.22;81.53;101050.19;10322865;28;20140;-65
2022/06/23 18:29:35;;;;;;;3.72;1.02;;;;;;;29.72;80.15;101054.38;10341218;28;20527;-64
2022/06/23 18:34:49;;;;;;;3.20;1.30;;;;;;;29.35;84.08;101059.28;10344251;28;20704;-65
2022/06/23 18:40:12;;;;;;;2.65;1.20;;;;;;;29.09;90.35;101059.09;10318587;28;20127;-66
2022/06/23 18:45:31;;;;;;;2.35;1.00;;;;;;;28.60;93.11;101050.53;10299717;28;20122;-65
2022/06/23 18:50:34;;;;;;;4.13;0.98;;;;;;;28.31;95.31;101062.34;10313048;28;20516;-66
2022/06/23 18:55:51;;;;;;;2.92;1.00;;;;;;;27.97;96.28;101056.19;10322975;28;20178;-66
2022/06/23 19:01:10;;;;;;;2.60;0.90;;;;;;;27.69;97.05;101044.22;10324358;28;20123;-66
2022/06/23 19:06:22;;;;;;;3.00;1.42;;;;;;;27.35;100.00;101050.78;10313340;28;20059;-65
2022/06/23 19:11:40;;;;;;;3.90;1.27;;;;;;;27.16;100.00;101054.28;10323723;28;20459;-66
2022/06/23 19:16:49;;;;;;;4.90;1.33;;;;;;;26.91;100.00;101054.66;10318131;28;20524;-66
2022/06/23 19:21:50;;;;;;;4.00;1.13;;;;;;;26.70;100.00;101050.91;10343014;28;20051;-65
2022/06/23 19:26:53;;;;;;;3.13;0.97;;;;;;;26.44;100.00;101064.44;10342215;28;20059;-65
2022/06/23 19:32:03;;;;;;;6.20;1.40;;;;;;;26.21;100.00;101065.09;10340513;28;20036;-65
2022/06/23 19:37:20;;;;;;;3.58;1.10;;;;;;;26.08;100.00;101061.22;10332153;28;20052;-66
2022/06/23 19:42:39;;;;;;;2.88;1.00;;;;;;;25.86;100.00;101065.44;10331066;28;20043;-66
2022/06/23 19:47:40;;;;;;;3.95;1.20;;;;;;;25.64;100.00;101065.63;10332545;28;20051;-65
2022/06/23 19:52:39;;;;;;;3.05;1.20;;;;;;;25.50;100.00;101065.75;10338806;28;20491;-64
2022/06/23 19:57:42;;;;;;;4.80;1.80;;;;;;;25.30;100.00;101057.13;10321889;28;20071;-62
2022/06/23 20:02:49;;;;;;;3.13;1.15;;;;;;;25.17;100.00;101053.97;10337143;28;20110;-61
2022/06/23 20:07:52;;;;;;;3.25;1.50;;;;;;;25.04;100.00;101066.84;10324305;28;20507;-62
2022/06/23 20:12:58;;;;;;;3.45;1.08;;;;;;;24.88;100.00;101058.94;10330304;28;20094;-62
2022/06/23 20:18:08;;;;;;;2.63;1.15;;;;;;;24.72;100.00;101051.06;10330792;28;20544;-62
2022/06/23 20:23:29;;;;;;;4.35;1.35;;;;;;;24.53;100.00;101055.94;10325682;28;20074;-63
2022/06/23 20:29:10;;;;;;;2.58;1.20;;;;;;;24.40;100.00;101043.56;10333795;28;20695;-63
2022/06/23 20:34:30;;;;;;;2.42;1.13;;;;;;;24.22;100.00;101042.84;10365856;28;20075;-62
2022/06/23 20:39:42;;;;;;;4.80;1.20;;;;;;;24.09;100.00;101042.47;10355040;28;20135;-62
2022/06/23 20:44:41;;;;;;;2.90;1.30;;;;;;;23.96;100.00;101039.31;10357796;27;20040;-62
2022/06/23 20:50:01;;;;;;;4.05;1.42;;;;;;;23.73;100.00;101037.72;10361828;28;20403;-61
2022/06/23 20:55:26;;;;;;;3.53;1.48;;;;;;;23.70;100.00;101032.94;10358807;28;20051;-62
2022/06/23 21:00:28;;;;;;;5.68;1.65;;;;;;;23.60;100.00;101033.75;10356812;28;20049;-60
2022/06/23 21:05:33;;;;;;;2.85;1.50;;;;;;;23.53;100.00;101022.56;10356947;28;20044;-59
2022/06/23 21:10:44;;;;;;;4.03;1.55;;;;;;;23.34;100.00;101014.63;10348838;28;20036;-63
2022/06/23 21:16:00;;;;;;;3.83;1.70;;;;;;;23.19;100.00;101022.97;10367662;28;20076;-61
2022/06/23 21:21:20;;;;;;;5.85;2.10;;;;;;;23.14;100.00;101023.38;10357995;28;20122;-61
2022/06/23 21:26:30;;;;;;;4.50;1.63;;;;;;;23.05;100.00;101017.38;10367460;28;20208;-60
2022/06/23 21:31:33;;;;;;;2.75;1.52;;;;;;;22.98;100.00;101014.56;10361889;28;20138;-60
2022/06/23 21:36:37;;;;;;;4.63;1.95;;;;;;;22.86;100.00;101016.53;10365039;28;20131;-61
2022/06/23 21:41:40;;;;;;;3.72;1.70;;;;;;;22.79;100.00;101015.69;10360554;28;20071;-62
2022/06/23 21:46:50;;;;;;;3.13;1.60;;;;;;;22.69;100.00;101008.91;10371525;28;20516;-63
2022/06/23 21:52:08;;;;;;;3.53;1.70;;;;;;;22.59;100.00;101009.69;10357524;28;20134;-63
2022/06/23 21:57:14;;;;;;;4.78;2.17;;;;;;;22.54;100.00;101001.72;10348947;28;20056;-63
2022/06/23 22:02:21;;;;;;;5.38;1.67;;;;;;;22.39;100.00;100998.84;10346282;28;20095;-61
2022/06/23 22:07:28;;;;;;;4.35;1.70;;;;;;;22.34;100.00;101001.22;10363983;28;20048;-64
2022/06/23 22:12:27;;;;;;;4.03;1.60;;;;;;;22.25;100.00;100996.00;10352906;28;20700;-63
2022/06/23 22:17:25;;;;;;;3.95;1.90;;;;;;;22.16;100.00;100998.31;10346708;28;21660;-63
2022/06/23 22:22:27;;;;;;;7.63;1.90;;;;;;;22.05;100.00;101004.66;10362407;28;20076;-61
2022/06/23 22:27:49;;;;;;;3.95;2.00;;;;;;;21.93;100.00;100996.63;10349652;28;20051;-61
2022/06/23 22:32:55;;;;;;;3.63;1.73;;;;;;;21.83;100.00;101000.13;10356685;28;20169;-64
2022/06/23 22:37:52;;;;;;;3.25;1.67;;;;;;;21.73;100.00;100995.31;10361069;28;20067;-61
2022/06/23 22:43:01;;;;;;;4.32;1.90;;;;;;;21.63;100.00;100994.06;10351681;28;20101;-62
2022/06/23 22:48:23;;;;;;;4.03;1.95;;;;;;;21.53;100.00;100995.56;10351070;28;20730;-61
2022/06/23 22:53:25;;;;;;;5.07;2.17;;;;;;;21.50;100.00;100999.13;10361441;28;20047;-61
2022/06/23 22:58:36;;;;;;;5.20;1.88;;;;;;;21.42;100.00;101001.06;10355522;28;20516;-61
2022/06/23 23:03:32;;;;;;;4.50;1.60;;;;;;;21.37;100.00;100997.78;10354686;28;20048;-61
2022/06/23 23:08:29;;;;;;;3.60;1.92;;;;;;;21.32;100.00;100996.16;10347877;28;20036;-62
2022/06/23 23:13:28;;;;;;;3.95;1.65;;;;;;;21.27;100.00;100998.50;10360767;28;20184;-61
2022/06/23 23:18:30;;;;;;;4.50;2.10;;;;;;;21.22;100.00;100989.34;10345687;28;20077;-62
2022/06/23 23:23:31;;;;;;;4.77;2.23;;;;;;;21.15;100.00;100985.69;10351651;28;20067;-61
2022/06/23 23:28:30;;;;;;;4.55;2.00;;;;;;;21.05;100.00;100994.72;10341743;28;20123;-62
2022/06/23 23:33:36;;;;;;;3.88;1.50;;;;;;;21.02;100.00;100999.06;10343868;27;20044;-62
2022/06/23 23:38:38;;;;;;;4.45;1.80;;;;;;;20.97;100.00;100988.31;10352621;28;20043;-62
2022/06/23 23:43:40;;;;;;;3.80;1.90;;;;;;;20.90;100.00;100985.47;10349190;28;20427;-62
2022/06/23 23:48:37;;;;;;;2.42;1.42;;;;;;;20.84;100.00;100981.41;10353727;28;20515;-61
2022/06/23 23:53:34;;;;;;;4.25;2.15;;;;;;;20.77;100.00;100982.97;10355680;28;20166;-62
2022/06/23 23:58:30;;;;;;;4.38;1.83;;;;;;;20.72;100.00;100983.28;10357311;28;20071;-62
